METAR Data
IDs: Format: Raw Decoded Include TAF

Data at: 1955 UTC 18 Apr 2021

LFBI 181930Z AUTO 36003KT CAVOK 11/01 Q1021 NOSIG